sensor_id;sensor_type;location;lat;lon;timestamp;temperature;humidity
16801;DHT22;8518;53.236;10.384;2022-10-31T00:01:30;11.60;99.90
16801;DHT22;8518;53.236;10.384;2022-10-31T00:03:56;11.60;99.90
16801;DHT22;8518;53.236;10.384;2022-10-31T00:06:23;11.70;99.90
16801;DHT22;8518;53.236;10.384;2022-10-31T00:08:54;11.60;99.90
16801;DHT22;8518;53.236;10.384;2022-10-31T00:11:20;11.60;99.90
16801;DHT22;8518;53.236;10.384;2022-10-31T00:13:46;11.70;99.90
16801;DHT22;8518;53.236;10.384;2022-10-31T00:16:16;11.70;99.90
16801;DHT22;8518;53.236;10.384;2022-10-31T00:18:42;11.70;99.90
16801;DHT22;8518;53.236;10.384;2022-10-31T00:21:07;11.70;99.90
16801;DHT22;8518;53.236;10.384;2022-10-31T00:23:33;11.70;99.90
16801;DHT22;8518;53.236;10.384;2022-10-31T00:26:02;11.80;99.90
16801;DHT22;8518;53.236;10.384;2022-10-31T00:28:29;11.90;99.90
16801;DHT22;8518;53.236;10.384;2022-10-31T00:31:01;11.90;99.90
16801;DHT22;8518;53.236;10.384;2022-10-31T00:33:28;11.90;99.90
16801;DHT22;8518;53.236;10.384;2022-10-31T00:35:53;12.00;99.90
16801;DHT22;8518;53.236;10.384;2022-10-31T00:38:19;12.00;99.90
16801;DHT22;8518;53.236;10.384;2022-10-31T00:40:45;12.00;99.90
16801;DHT22;8518;53.236;10.384;2022-10-31T00:43:10;11.90;99.90
16801;DHT22;8518;53.236;10.384;2022-10-31T00:45:36;12.00;99.90
16801;DHT22;8518;53.236;10.384;2022-10-31T00:48:01;12.00;99.90
16801;DHT22;8518;53.236;10.384;2022-10-31T00:50:27;12.00;99.90
16801;DHT22;8518;53.236;10.384;2022-10-31T00:52:53;12.00;99.90
16801;DHT22;8518;53.236;10.384;2022-10-31T00:55:18;12.00;99.90
16801;DHT22;8518;53.236;10.384;2022-10-31T00:57:46;12.00;99.90
16801;DHT22;8518;53.236;10.384;2022-10-31T01:00:13;12.00;99.90
16801;DHT22;8518;53.236;10.384;2022-10-31T01:02:39;12.00;99.90
16801;DHT22;8518;53.236;10.384;2022-10-31T01:05:04;12.00;99.90
16801;DHT22;8518;53.236;10.384;2022-10-31T01:07:30;11.90;99.90
16801;DHT22;8518;53.236;10.384;2022-10-31T01:09:56;12.00;99.90
16801;DHT22;8518;53.236;10.384;2022-10-31T01:12:21;11.90;99.90
16801;DHT22;8518;53.236;10.384;2022-10-31T01:14:47;12.00;99.90
16801;DHT22;8518;53.236;10.384;2022-10-31T01:17:13;11.90;99.90
16801;DHT22;8518;53.236;10.384;2022-10-31T01:19:39;11.90;99.90
16801;DHT22;8518;53.236;10.384;2022-10-31T01:22:05;11.90;99.90
16801;DHT22;8518;53.236;10.384;2022-10-31T01:24:31;11.80;99.90
16801;DHT22;8518;53.236;10.384;2022-10-31T01:26:56;11.80;99.90
16801;DHT22;8518;53.236;10.384;2022-10-31T01:29:22;11.80;99.90
16801;DHT22;8518;53.236;10.384;2022-10-31T01:31:47;11.70;99.90
16801;DHT22;8518;53.236;10.384;2022-10-31T01:34:16;11.70;99.90
16801;DHT22;8518;53.236;10.384;2022-10-31T01:36:43;11.70;99.90
16801;DHT22;8518;53.236;10.384;2022-10-31T01:39:14;11.60;99.90
16801;DHT22;8518;53.236;10.384;2022-10-31T01:41:48;11.60;99.90
16801;DHT22;8518;53.236;10.384;2022-10-31T01:49:24;11.50;99.90
16801;DHT22;8518;53.236;10.384;2022-10-31T01:51:56;11.50;99.90
16801;DHT22;8518;53.236;10.384;2022-10-31T01:54:25;11.60;99.90
16801;DHT22;8518;53.236;10.384;2022-10-31T01:56:56;11.60;99.90
16801;DHT22;8518;53.236;10.384;2022-10-31T01:59:25;11.60;99.90
16801;DHT22;8518;53.236;10.384;2022-10-31T02:01:53;11.60;99.90
16801;DHT22;8518;53.236;10.384;2022-10-31T02:04:19;11.60;99.90
16801;DHT22;8518;53.236;10.384;2022-10-31T02:06:58;11.60;99.90
16801;DHT22;8518;53.236;10.384;2022-10-31T02:09:27;11.60;99.90
16801;DHT22;8518;53.236;10.384;2022-10-31T02:11:56;11.60;99.90
16801;DHT22;8518;53.236;10.384;2022-10-31T02:14:25;11.70;99.90
16801;DHT22;8518;53.236;10.384;2022-10-31T02:16:51;11.70;99.90
16801;DHT22;8518;53.236;10.384;2022-10-31T02:19:25;11.80;99.90
16801;DHT22;8518;53.236;10.384;2022-10-31T02:33:30;12.20;99.90
16801;DHT22;8518;53.236;10.384;2022-10-31T02:36:27;12.20;99.90
16801;DHT22;8518;53.236;10.384;2022-10-31T02:41:40;12.20;99.90
16801;DHT22;8518;53.236;10.384;2022-10-31T02:47:01;12.30;99.90
16801;DHT22;8518;53.236;10.384;2022-10-31T02:52:17;12.40;99.90
16801;DHT22;8518;53.236;10.384;2022-10-31T02:54:44;12.40;99.90
16801;DHT22;8518;53.236;10.384;2022-10-31T02:57:10;12.40;99.90
16801;DHT22;8518;53.236;10.384;2022-10-31T02:59:37;12.50;99.90
16801;DHT22;8518;53.236;10.384;2022-10-31T03:05:24;12.60;99.90
16801;DHT22;8518;53.236;10.384;2022-10-31T03:16:47;12.70;99.90
16801;DHT22;8518;53.236;10.384;2022-10-31T03:19:20;12.70;99.90
16801;DHT22;8518;53.236;10.384;2022-10-31T03:22:02;12.70;99.90
16801;DHT22;8518;53.236;10.384;2022-10-31T03:24:33;12.70;99.90
16801;DHT22;8518;53.236;10.384;2022-10-31T03:27:01;12.70;99.90
16801;DHT22;8518;53.236;10.384;2022-10-31T03:29:30;12.80;99.90
16801;DHT22;8518;53.236;10.384;2022-10-31T03:32:02;12.80;99.90
16801;DHT22;8518;53.236;10.384;2022-10-31T03:34:30;12.90;99.90
16801;DHT22;8518;53.236;10.384;2022-10-31T03:36:58;12.90;99.90
16801;DHT22;8518;53.236;10.384;2022-10-31T03:39:26;12.90;99.90
16801;DHT22;8518;53.236;10.384;2022-10-31T03:42:02;12.90;99.90
16801;DHT22;8518;53.236;10.384;2022-10-31T03:44:30;12.90;99.90
16801;DHT22;8518;53.236;10.384;2022-10-31T03:46:57;12.90;99.90
16801;DHT22;8518;53.236;10.384;2022-10-31T03:49:23;12.90;99.90
16801;DHT22;8518;53.236;10.384;2022-10-31T03:54:42;12.90;99.90
16801;DHT22;8518;53.236;10.384;2022-10-31T03:57:19;13.00;99.90
16801;DHT22;8518;53.236;10.384;2022-10-31T03:59:53;12.90;99.90
16801;DHT22;8518;53.236;10.384;2022-10-31T04:02:23;12.90;99.90
16801;DHT22;8518;53.236;10.384;2022-10-31T04:04:51;12.90;99.90
16801;DHT22;8518;53.236;10.384;2022-10-31T04:07:17;12.90;99.90
16801;DHT22;8518;53.236;10.384;2022-10-31T04:09:45;12.90;99.90
16801;DHT22;8518;53.236;10.384;2022-10-31T04:12:14;12.90;99.90
16801;DHT22;8518;53.236;10.384;2022-10-31T04:14:42;12.90;99.90
16801;DHT22;8518;53.236;10.384;2022-10-31T04:17:12;12.90;99.90
16801;DHT22;8518;53.236;10.384;2022-10-31T04:19:38;12.90;99.90
16801;DHT22;8518;53.236;10.384;2022-10-31T04:22:04;12.90;99.90
16801;DHT22;8518;53.236;10.384;2022-10-31T04:24:29;12.80;99.90
16801;DHT22;8518;53.236;10.384;2022-10-31T04:26:55;12.90;99.90
16801;DHT22;8518;53.236;10.384;2022-10-31T04:29:21;12.80;99.90
16801;DHT22;8518;53.236;10.384;2022-10-31T04:31:46;12.80;99.90
16801;DHT22;8518;53.236;10.384;2022-10-31T04:34:12;12.80;99.90
16801;DHT22;8518;53.236;10.384;2022-10-31T04:36:37;12.80;99.90
16801;DHT22;8518;53.236;10.384;2022-10-31T04:39:03;12.80;99.90
16801;DHT22;8518;53.236;10.384;2022-10-31T04:41:29;12.80;99.90
16801;DHT22;8518;53.236;10.384;2022-10-31T04:43:54;12.80;99.90
16801;DHT22;8518;53.236;10.384;2022-10-31T04:46:20;12.70;99.90
16801;DHT22;8518;53.236;10.384;2022-10-31T04:48:45;12.70;99.90
16801;DHT22;8518;53.236;10.384;2022-10-31T04:51:11;12.70;99.90
16801;DHT22;8518;53.236;10.384;2022-10-31T04:53:37;12.80;99.90
16801;DHT22;8518;53.236;10.384;2022-10-31T04:56:03;12.80;99.90
16801;DHT22;8518;53.236;10.384;2022-10-31T04:58:28;12.70;99.90
16801;DHT22;8518;53.236;10.384;2022-10-31T05:00:55;12.70;99.90
16801;DHT22;8518;53.236;10.384;2022-10-31T05:03:21;12.70;99.90
16801;DHT22;8518;53.236;10.384;2022-10-31T05:05:47;12.70;99.90
16801;DHT22;8518;53.236;10.384;2022-10-31T05:08:13;12.70;99.90
16801;DHT22;8518;53.236;10.384;2022-10-31T05:10:39;12.70;99.90
16801;DHT22;8518;53.236;10.384;2022-10-31T05:13:05;12.70;99.90
16801;DHT22;8518;53.236;10.384;2022-10-31T05:15:31;12.70;99.90
16801;DHT22;8518;53.236;10.384;2022-10-31T05:17:57;12.70;99.90
16801;DHT22;8518;53.236;10.384;2022-10-31T05:20:26;12.70;99.90
16801;DHT22;8518;53.236;10.384;2022-10-31T05:22:53;12.80;99.90
16801;DHT22;8518;53.236;10.384;2022-10-31T05:25:21;12.80;99.90
16801;DHT22;8518;53.236;10.384;2022-10-31T05:27:49;12.90;99.90
16801;DHT22;8518;53.236;10.384;2022-10-31T05:30:18;12.90;99.90
16801;DHT22;8518;53.236;10.384;2022-10-31T05:32:46;12.80;99.90
16801;DHT22;8518;53.236;10.384;2022-10-31T05:35:14;12.90;99.90
16801;DHT22;8518;53.236;10.384;2022-10-31T05:37:40;12.90;99.90
16801;DHT22;8518;53.236;10.384;2022-10-31T05:40:08;13.00;99.90
16801;DHT22;8518;53.236;10.384;2022-10-31T05:42:35;13.00;99.90
16801;DHT22;8518;53.236;10.384;2022-10-31T05:45:01;13.00;99.90
16801;DHT22;8518;53.236;10.384;2022-10-31T05:47:27;13.10;99.90
16801;DHT22;8518;53.236;10.384;2022-10-31T05:49:52;13.10;99.90
16801;DHT22;8518;53.236;10.384;2022-10-31T05:52:18;13.10;99.90
16801;DHT22;8518;53.236;10.384;2022-10-31T05:54:44;13.10;99.90
16801;DHT22;8518;53.236;10.384;2022-10-31T05:57:09;13.10;99.90
16801;DHT22;8518;53.236;10.384;2022-10-31T05:59:35;13.10;99.90
16801;DHT22;8518;53.236;10.384;2022-10-31T06:02:00;13.20;99.90
16801;DHT22;8518;53.236;10.384;2022-10-31T06:04:26;13.20;99.90
16801;DHT22;8518;53.236;10.384;2022-10-31T06:06:52;13.20;99.90
16801;DHT22;8518;53.236;10.384;2022-10-31T06:09:17;13.30;99.90
16801;DHT22;8518;53.236;10.384;2022-10-31T06:11:43;13.30;99.90
16801;DHT22;8518;53.236;10.384;2022-10-31T06:14:09;13.20;99.90
16801;DHT22;8518;53.236;10.384;2022-10-31T06:16:34;13.30;99.90
16801;DHT22;8518;53.236;10.384;2022-10-31T06:19:00;13.30;99.90
16801;DHT22;8518;53.236;10.384;2022-10-31T06:21:25;13.40;99.90
16801;DHT22;8518;53.236;10.384;2022-10-31T06:23:51;13.40;99.90
16801;DHT22;8518;53.236;10.384;2022-10-31T06:26:17;13.40;99.90
16801;DHT22;8518;53.236;10.384;2022-10-31T06:28:42;13.40;99.90
16801;DHT22;8518;53.236;10.384;2022-10-31T06:31:08;13.40;99.90
16801;DHT22;8518;53.236;10.384;2022-10-31T06:33:34;13.40;99.90
16801;DHT22;8518;53.236;10.384;2022-10-31T06:36:00;13.30;99.90
16801;DHT22;8518;53.236;10.384;2022-10-31T06:38:29;13.30;99.90
16801;DHT22;8518;53.236;10.384;2022-10-31T06:40:55;13.30;99.90
16801;DHT22;8518;53.236;10.384;2022-10-31T06:43:21;13.40;99.90
16801;DHT22;8518;53.236;10.384;2022-10-31T06:45:47;13.40;99.90
16801;DHT22;8518;53.236;10.384;2022-10-31T06:48:12;13.50;99.90
16801;DHT22;8518;53.236;10.384;2022-10-31T06:50:38;13.50;99.90
16801;DHT22;8518;53.236;10.384;2022-10-31T06:53:03;13.50;99.90
16801;DHT22;8518;53.236;10.384;2022-10-31T06:55:29;13.50;99.90
16801;DHT22;8518;53.236;10.384;2022-10-31T06:57:57;13.50;99.90
16801;DHT22;8518;53.236;10.384;2022-10-31T07:00:24;13.50;99.90
16801;DHT22;8518;53.236;10.384;2022-10-31T07:02:58;13.50;99.90
16801;DHT22;8518;53.236;10.384;2022-10-31T07:05:25;13.50;99.90
16801;DHT22;8518;53.236;10.384;2022-10-31T07:08:02;13.50;99.90
16801;DHT22;8518;53.236;10.384;2022-10-31T07:10:30;13.60;99.90
16801;DHT22;8518;53.236;10.384;2022-10-31T07:12:58;13.70;99.90
16801;DHT22;8518;53.236;10.384;2022-10-31T07:15:25;13.70;99.90
16801;DHT22;8518;53.236;10.384;2022-10-31T07:17:51;13.80;99.90
16801;DHT22;8518;53.236;10.384;2022-10-31T07:20:16;13.80;99.90
16801;DHT22;8518;53.236;10.384;2022-10-31T07:22:42;13.70;99.90
16801;DHT22;8518;53.236;10.384;2022-10-31T07:25:09;13.80;99.90
16801;DHT22;8518;53.236;10.384;2022-10-31T07:27:42;13.90;99.90
16801;DHT22;8518;53.236;10.384;2022-10-31T07:30:09;14.00;99.90
16801;DHT22;8518;53.236;10.384;2022-10-31T07:32:43;14.10;99.90
16801;DHT22;8518;53.236;10.384;2022-10-31T07:35:10;14.20;99.90
16801;DHT22;8518;53.236;10.384;2022-10-31T07:37:36;14.20;99.90
16801;DHT22;8518;53.236;10.384;2022-10-31T07:40:03;14.30;99.90
16801;DHT22;8518;53.236;10.384;2022-10-31T07:42:29;14.40;99.90
16801;DHT22;8518;53.236;10.384;2022-10-31T07:44:55;14.50;99.90
16801;DHT22;8518;53.236;10.384;2022-10-31T07:47:20;14.60;99.90
16801;DHT22;8518;53.236;10.384;2022-10-31T07:49:46;14.50;99.90
16801;DHT22;8518;53.236;10.384;2022-10-31T07:52:11;14.50;99.90
16801;DHT22;8518;53.236;10.384;2022-10-31T07:54:37;14.60;99.90
16801;DHT22;8518;53.236;10.384;2022-10-31T07:57:03;14.70;99.90
16801;DHT22;8518;53.236;10.384;2022-10-31T07:59:28;14.80;99.90
16801;DHT22;8518;53.236;10.384;2022-10-31T08:01:54;14.90;99.90
16801;DHT22;8518;53.236;10.384;2022-10-31T08:04:19;15.00;99.90
16801;DHT22;8518;53.236;10.384;2022-10-31T08:06:45;15.10;99.90
16801;DHT22;8518;53.236;10.384;2022-10-31T08:09:13;15.10;99.90
16801;DHT22;8518;53.236;10.384;2022-10-31T08:11:39;15.20;99.90
16801;DHT22;8518;53.236;10.384;2022-10-31T08:14:04;15.20;99.90
16801;DHT22;8518;53.236;10.384;2022-10-31T08:16:30;15.10;99.90
16801;DHT22;8518;53.236;10.384;2022-10-31T08:18:56;15.10;99.90
16801;DHT22;8518;53.236;10.384;2022-10-31T08:21:22;15.10;99.90
16801;DHT22;8518;53.236;10.384;2022-10-31T08:23:47;15.20;99.90
16801;DHT22;8518;53.236;10.384;2022-10-31T08:26:13;15.30;99.90
16801;DHT22;8518;53.236;10.384;2022-10-31T08:28:39;15.20;99.90
16801;DHT22;8518;53.236;10.384;2022-10-31T08:31:04;15.40;99.90
16801;DHT22;8518;53.236;10.384;2022-10-31T08:33:31;15.60;99.90
16801;DHT22;8518;53.236;10.384;2022-10-31T08:36:00;15.90;99.90
16801;DHT22;8518;53.236;10.384;2022-10-31T08:38:25;16.10;99.90
16801;DHT22;8518;53.236;10.384;2022-10-31T08:40:51;16.30;99.90
16801;DHT22;8518;53.236;10.384;2022-10-31T08:43:17;16.30;99.90
16801;DHT22;8518;53.236;10.384;2022-10-31T08:45:44;16.20;99.90
16801;DHT22;8518;53.236;10.384;2022-10-31T08:48:14;16.10;99.90
16801;DHT22;8518;53.236;10.384;2022-10-31T08:50:40;16.10;99.90
16801;DHT22;8518;53.236;10.384;2022-10-31T08:53:17;16.20;99.90
16801;DHT22;8518;53.236;10.384;2022-10-31T08:55:44;16.20;99.90
16801;DHT22;8518;53.236;10.384;2022-10-31T08:58:12;16.30;99.90
16801;DHT22;8518;53.236;10.384;2022-10-31T09:00:39;16.40;99.90
16801;DHT22;8518;53.236;10.384;2022-10-31T09:03:11;16.50;99.90
16801;DHT22;8518;53.236;10.384;2022-10-31T09:05:38;16.60;99.90
16801;DHT22;8518;53.236;10.384;2022-10-31T09:08:05;16.70;99.90
16801;DHT22;8518;53.236;10.384;2022-10-31T09:10:32;16.70;99.90
16801;DHT22;8518;53.236;10.384;2022-10-31T09:13:03;16.80;99.90
16801;DHT22;8518;53.236;10.384;2022-10-31T09:15:36;16.80;99.90
16801;DHT22;8518;53.236;10.384;2022-10-31T09:18:02;16.80;99.90
16801;DHT22;8518;53.236;10.384;2022-10-31T09:20:28;16.90;99.90
16801;DHT22;8518;53.236;10.384;2022-10-31T09:23:02;16.90;99.90
16801;DHT22;8518;53.236;10.384;2022-10-31T09:25:28;16.90;99.90
16801;DHT22;8518;53.236;10.384;2022-10-31T09:27:59;16.80;99.90
16801;DHT22;8518;53.236;10.384;2022-10-31T09:30:29;16.80;99.90
16801;DHT22;8518;53.236;10.384;2022-10-31T09:33:04;16.80;99.90
16801;DHT22;8518;53.236;10.384;2022-10-31T09:35:30;16.90;99.90
16801;DHT22;8518;53.236;10.384;2022-10-31T09:38:00;16.80;99.90
16801;DHT22;8518;53.236;10.384;2022-10-31T09:40:44;16.80;99.90
16801;DHT22;8518;53.236;10.384;2022-10-31T09:43:20;16.80;99.90
16801;DHT22;8518;53.236;10.384;2022-10-31T09:51:54;16.70;99.90
16801;DHT22;8518;53.236;10.384;2022-10-31T09:57:00;17.00;99.90
16801;DHT22;8518;53.236;10.384;2022-10-31T09:59:34;17.20;99.90
16801;DHT22;8518;53.236;10.384;2022-10-31T10:02:10;17.50;99.90
16801;DHT22;8518;53.236;10.384;2022-10-31T10:04:43;17.80;99.90
16801;DHT22;8518;53.236;10.384;2022-10-31T10:09:47;18.00;99.90
16801;DHT22;8518;53.236;10.384;2022-10-31T10:12:42;17.90;99.90
16801;DHT22;8518;53.236;10.384;2022-10-31T10:15:28;17.80;99.90
16801;DHT22;8518;53.236;10.384;2022-10-31T10:18:16;17.80;99.90
16801;DHT22;8518;53.236;10.384;2022-10-31T10:26:22;17.70;99.90
16801;DHT22;8518;53.236;10.384;2022-10-31T10:29:02;17.80;99.90
16801;DHT22;8518;53.236;10.384;2022-10-31T10:31:35;17.80;99.90
16801;DHT22;8518;53.236;10.384;2022-10-31T10:37:04;17.70;99.90
16801;DHT22;8518;53.236;10.384;2022-10-31T10:39:46;17.70;99.90
16801;DHT22;8518;53.236;10.384;2022-10-31T10:42:16;17.70;99.90
16801;DHT22;8518;53.236;10.384;2022-10-31T10:45:14;17.70;99.90
16801;DHT22;8518;53.236;10.384;2022-10-31T10:48:08;17.90;99.90
16801;DHT22;8518;53.236;10.384;2022-10-31T10:50:41;18.30;99.90
16801;DHT22;8518;53.236;10.384;2022-10-31T10:53:24;18.60;99.90
16801;DHT22;8518;53.236;10.384;2022-10-31T10:56:20;18.90;99.90
16801;DHT22;8518;53.236;10.384;2022-10-31T10:58:50;19.30;99.90
16801;DHT22;8518;53.236;10.384;2022-10-31T11:01:15;19.90;99.90
16801;DHT22;8518;53.236;10.384;2022-10-31T11:03:41;20.20;99.90
16801;DHT22;8518;53.236;10.384;2022-10-31T11:06:21;20.60;99.90
16801;DHT22;8518;53.236;10.384;2022-10-31T11:08:51;21.10;99.90
16801;DHT22;8518;53.236;10.384;2022-10-31T11:13:44;22.00;99.90
16801;DHT22;8518;53.236;10.384;2022-10-31T11:16:14;22.30;99.90
16801;DHT22;8518;53.236;10.384;2022-10-31T11:18:45;23.30;99.90
16801;DHT22;8518;53.236;10.384;2022-10-31T11:21:24;24.30;99.90
16801;DHT22;8518;53.236;10.384;2022-10-31T11:24:23;24.40;99.90
16801;DHT22;8518;53.236;10.384;2022-10-31T11:26:50;24.00;99.90
16801;DHT22;8518;53.236;10.384;2022-10-31T11:29:21;23.40;99.90
16801;DHT22;8518;53.236;10.384;2022-10-31T11:31:47;22.90;99.90
16801;DHT22;8518;53.236;10.384;2022-10-31T11:34:36;22.70;99.90
16801;DHT22;8518;53.236;10.384;2022-10-31T11:37:26;22.60;99.90
16801;DHT22;8518;53.236;10.384;2022-10-31T11:39:58;22.70;99.90
16801;DHT22;8518;53.236;10.384;2022-10-31T11:42:29;23.00;99.90
16801;DHT22;8518;53.236;10.384;2022-10-31T11:45:02;23.40;99.90
16801;DHT22;8518;53.236;10.384;2022-10-31T11:47:31;23.70;99.90
16801;DHT22;8518;53.236;10.384;2022-10-31T11:50:01;23.90;99.90
16801;DHT22;8518;53.236;10.384;2022-10-31T11:52:30;23.90;99.90
16801;DHT22;8518;53.236;10.384;2022-10-31T11:55:13;23.50;99.90
16801;DHT22;8518;53.236;10.384;2022-10-31T11:57:50;23.70;99.90
16801;DHT22;8518;53.236;10.384;2022-10-31T12:05:44;26.40;99.50
16801;DHT22;8518;53.236;10.384;2022-10-31T12:08:12;26.50;97.80
16801;DHT22;8518;53.236;10.384;2022-10-31T12:13:34;27.60;95.90
16801;DHT22;8518;53.236;10.384;2022-10-31T12:19:08;29.70;86.70
16801;DHT22;8518;53.236;10.384;2022-10-31T12:21:41;30.00;80.70
16801;DHT22;8518;53.236;10.384;2022-10-31T12:24:44;30.00;80.30
16801;DHT22;8518;53.236;10.384;2022-10-31T12:27:29;28.90;80.70
16801;DHT22;8518;53.236;10.384;2022-10-31T12:30:13;27.50;86.30
16801;DHT22;8518;53.236;10.384;2022-10-31T12:33:04;26.20;92.20
16801;DHT22;8518;53.236;10.384;2022-10-31T12:35:51;25.10;95.80
16801;DHT22;8518;53.236;10.384;2022-10-31T12:38:26;24.00;99.90
16801;DHT22;8518;53.236;10.384;2022-10-31T12:41:20;23.00;99.90
16801;DHT22;8518;53.236;10.384;2022-10-31T12:44:05;22.30;99.90
16801;DHT22;8518;53.236;10.384;2022-10-31T12:49:50;21.70;99.90
16801;DHT22;8518;53.236;10.384;2022-10-31T12:58:03;22.60;99.90
16801;DHT22;8518;53.236;10.384;2022-10-31T13:00:31;22.80;99.90
16801;DHT22;8518;53.236;10.384;2022-10-31T13:05:46;23.90;99.90
16801;DHT22;8518;53.236;10.384;2022-10-31T13:08:44;25.10;99.90
16801;DHT22;8518;53.236;10.384;2022-10-31T13:11:20;26.10;99.40
16801;DHT22;8518;53.236;10.384;2022-10-31T13:13:58;26.60;96.70
16801;DHT22;8518;53.236;10.384;2022-10-31T13:16:29;26.50;96.60
16801;DHT22;8518;53.236;10.384;2022-10-31T13:21:30;26.30;96.60
16801;DHT22;8518;53.236;10.384;2022-10-31T13:23:59;26.10;96.30
16801;DHT22;8518;53.236;10.384;2022-10-31T13:26:40;26.10;95.90
16801;DHT22;8518;53.236;10.384;2022-10-31T13:31:42;25.40;97.80
16801;DHT22;8518;53.236;10.384;2022-10-31T13:34:27;24.80;99.00
16801;DHT22;8518;53.236;10.384;2022-10-31T13:42:56;23.50;99.90
16801;DHT22;8518;53.236;10.384;2022-10-31T13:45:24;23.30;99.90
16801;DHT22;8518;53.236;10.384;2022-10-31T13:48:16;23.20;99.90
16801;DHT22;8518;53.236;10.384;2022-10-31T13:50:54;23.00;99.90
16801;DHT22;8518;53.236;10.384;2022-10-31T13:53:22;22.60;99.90
16801;DHT22;8518;53.236;10.384;2022-10-31T13:56:31;21.80;99.90
16801;DHT22;8518;53.236;10.384;2022-10-31T13:58:37;21.40;99.90
16801;DHT22;8518;53.236;10.384;2022-10-31T14:01:15;21.00;99.90
16801;DHT22;8518;53.236;10.384;2022-10-31T14:03:43;20.40;99.90
16801;DHT22;8518;53.236;10.384;2022-10-31T14:06:10;19.90;99.90
16801;DHT22;8518;53.236;10.384;2022-10-31T14:08:40;19.60;99.90
16801;DHT22;8518;53.236;10.384;2022-10-31T14:11:08;19.40;99.90
16801;DHT22;8518;53.236;10.384;2022-10-31T14:13:43;19.30;99.90
16801;DHT22;8518;53.236;10.384;2022-10-31T14:16:26;19.20;99.90
16801;DHT22;8518;53.236;10.384;2022-10-31T14:23:53;18.50;99.90
16801;DHT22;8518;53.236;10.384;2022-10-31T14:28:48;18.40;99.90
16801;DHT22;8518;53.236;10.384;2022-10-31T14:31:37;18.20;99.90
16801;DHT22;8518;53.236;10.384;2022-10-31T14:34:21;17.90;99.90
16801;DHT22;8518;53.236;10.384;2022-10-31T14:39:53;17.50;99.90
16801;DHT22;8518;53.236;10.384;2022-10-31T14:45:20;17.00;99.90
16801;DHT22;8518;53.236;10.384;2022-10-31T14:48:12;16.80;99.90
16801;DHT22;8518;53.236;10.384;2022-10-31T14:50:47;16.60;99.90
16801;DHT22;8518;53.236;10.384;2022-10-31T14:53:43;16.40;99.90
16801;DHT22;8518;53.236;10.384;2022-10-31T14:56:11;16.20;99.90
16801;DHT22;8518;53.236;10.384;2022-10-31T14:58:41;16.00;99.90
16801;DHT22;8518;53.236;10.384;2022-10-31T15:01:21;15.90;99.90
16801;DHT22;8518;53.236;10.384;2022-10-31T15:03:48;15.70;99.90
16801;DHT22;8518;53.236;10.384;2022-10-31T15:06:19;15.50;99.90
16801;DHT22;8518;53.236;10.384;2022-10-31T15:08:49;15.40;99.90
16801;DHT22;8518;53.236;10.384;2022-10-31T15:13:45;15.20;99.90
16801;DHT22;8518;53.236;10.384;2022-10-31T15:16:12;15.10;99.90
16801;DHT22;8518;53.236;10.384;2022-10-31T15:18:48;15.00;99.90
16801;DHT22;8518;53.236;10.384;2022-10-31T15:21:16;14.90;99.90
16801;DHT22;8518;53.236;10.384;2022-10-31T15:23:42;14.80;99.90
16801;DHT22;8518;53.236;10.384;2022-10-31T15:26:15;14.60;99.90
16801;DHT22;8518;53.236;10.384;2022-10-31T15:28:42;14.40;99.90
16801;DHT22;8518;53.236;10.384;2022-10-31T15:31:17;14.30;99.90
16801;DHT22;8518;53.236;10.384;2022-10-31T15:33:46;14.30;99.90
16801;DHT22;8518;53.236;10.384;2022-10-31T15:36:25;14.20;99.90
16801;DHT22;8518;53.236;10.384;2022-10-31T15:38:51;14.10;99.90
16801;DHT22;8518;53.236;10.384;2022-10-31T15:41:24;14.10;99.90
16801;DHT22;8518;53.236;10.384;2022-10-31T15:43:53;14.00;99.90
16801;DHT22;8518;53.236;10.384;2022-10-31T15:46:19;14.00;99.90
16801;DHT22;8518;53.236;10.384;2022-10-31T15:48:47;13.90;99.90
16801;DHT22;8518;53.236;10.384;2022-10-31T15:51:13;13.80;99.90
16801;DHT22;8518;53.236;10.384;2022-10-31T15:53:48;13.80;99.90
16801;DHT22;8518;53.236;10.384;2022-10-31T15:56:27;13.70;99.90
16801;DHT22;8518;53.236;10.384;2022-10-31T15:58:58;13.60;99.90
16801;DHT22;8518;53.236;10.384;2022-10-31T16:04:23;13.50;99.90
16801;DHT22;8518;53.236;10.384;2022-10-31T16:07:21;13.30;99.90
16801;DHT22;8518;53.236;10.384;2022-10-31T16:10:00;13.20;99.90
16801;DHT22;8518;53.236;10.384;2022-10-31T16:12:37;13.20;99.90
16801;DHT22;8518;53.236;10.384;2022-10-31T16:15:17;13.20;99.90
16801;DHT22;8518;53.236;10.384;2022-10-31T16:17:50;13.20;99.90
16801;DHT22;8518;53.236;10.384;2022-10-31T16:20:23;13.10;99.90
16801;DHT22;8518;53.236;10.384;2022-10-31T16:22:51;13.00;99.90
16801;DHT22;8518;53.236;10.384;2022-10-31T16:25:29;13.10;99.90
16801;DHT22;8518;53.236;10.384;2022-10-31T16:28:00;13.00;99.90
16801;DHT22;8518;53.236;10.384;2022-10-31T16:30:39;13.00;99.90
16801;DHT22;8518;53.236;10.384;2022-10-31T16:35:47;12.90;99.90
16801;DHT22;8518;53.236;10.384;2022-10-31T16:38:13;12.90;99.90
16801;DHT22;8518;53.236;10.384;2022-10-31T16:40:39;12.90;99.90
16801;DHT22;8518;53.236;10.384;2022-10-31T16:43:10;12.90;99.90
16801;DHT22;8518;53.236;10.384;2022-10-31T16:45:36;12.90;99.90
16801;DHT22;8518;53.236;10.384;2022-10-31T16:48:09;12.80;99.90
16801;DHT22;8518;53.236;10.384;2022-10-31T16:50:37;12.90;99.90
16801;DHT22;8518;53.236;10.384;2022-10-31T16:53:03;12.90;99.90
16801;DHT22;8518;53.236;10.384;2022-10-31T16:55:29;12.90;99.90
16801;DHT22;8518;53.236;10.384;2022-10-31T16:57:56;12.90;99.90
16801;DHT22;8518;53.236;10.384;2022-10-31T17:00:23;12.90;99.90
16801;DHT22;8518;53.236;10.384;2022-10-31T17:02:55;12.90;99.90
16801;DHT22;8518;53.236;10.384;2022-10-31T17:05:24;12.90;99.90
16801;DHT22;8518;53.236;10.384;2022-10-31T17:07:55;13.00;99.90
16801;DHT22;8518;53.236;10.384;2022-10-31T17:10:21;12.90;99.90
16801;DHT22;8518;53.236;10.384;2022-10-31T17:12:48;13.00;99.90
16801;DHT22;8518;53.236;10.384;2022-10-31T17:15:23;13.00;99.90
16801;DHT22;8518;53.236;10.384;2022-10-31T17:17:50;13.00;99.90
16801;DHT22;8518;53.236;10.384;2022-10-31T17:20:29;13.00;99.90
16801;DHT22;8518;53.236;10.384;2022-10-31T17:22:56;13.00;99.90
16801;DHT22;8518;53.236;10.384;2022-10-31T17:25:26;13.00;99.90
16801;DHT22;8518;53.236;10.384;2022-10-31T17:27:52;13.00;99.90
16801;DHT22;8518;53.236;10.384;2022-10-31T17:30:19;13.00;99.90
16801;DHT22;8518;53.236;10.384;2022-10-31T17:32:49;12.90;99.90
16801;DHT22;8518;53.236;10.384;2022-10-31T17:35:15;12.90;99.90
16801;DHT22;8518;53.236;10.384;2022-10-31T17:37:42;12.90;99.90
16801;DHT22;8518;53.236;10.384;2022-10-31T17:40:10;12.90;99.90
16801;DHT22;8518;53.236;10.384;2022-10-31T17:42:35;12.80;99.90
16801;DHT22;8518;53.236;10.384;2022-10-31T17:45:02;12.80;99.90
16801;DHT22;8518;53.236;10.384;2022-10-31T17:47:27;12.80;99.90